sensor_id;sensor_type;location;lat;lon;timestamp;P1;durP1;ratioP1;P2;durP2;ratioP2
73791;SDS011;62122;41.112;16.694;2022-08-11T00:01:13;10.63;;;5.50;;
73791;SDS011;62122;41.112;16.694;2022-08-11T00:04:22;11.13;;;5.07;;
73791;SDS011;62122;41.112;16.694;2022-08-11T00:07:28;9.23;;;5.43;;
73791;SDS011;62122;41.112;16.694;2022-08-11T00:10:32;8.88;;;5.65;;
73791;SDS011;62122;41.112;16.694;2022-08-11T00:13:41;9.43;;;5.25;;
73791;SDS011;62122;41.112;16.694;2022-08-11T00:20:07;9.23;;;4.87;;
73791;SDS011;62122;41.112;16.694;2022-08-11T00:23:15;9.18;;;5.15;;
73791;SDS011;62122;41.112;16.694;2022-08-11T00:26:22;10.10;;;4.90;;
73791;SDS011;62122;41.112;16.694;2022-08-11T00:29:26;8.73;;;4.80;;
73791;SDS011;62122;41.112;16.694;2022-08-11T00:32:31;8.77;;;4.88;;
73791;SDS011;62122;41.112;16.694;2022-08-11T00:35:36;8.40;;;5.23;;
73791;SDS011;62122;41.112;16.694;2022-08-11T00:38:41;11.10;;;5.15;;
73791;SDS011;62122;41.112;16.694;2022-08-11T00:45:11;9.25;;;5.13;;
73791;SDS011;62122;41.112;16.694;2022-08-11T00:48:32;10.88;;;5.35;;
73791;SDS011;62122;41.112;16.694;2022-08-11T00:55:18;10.25;;;5.22;;
73791;SDS011;62122;41.112;16.694;2022-08-11T01:13:06;11.25;;;5.05;;
73791;SDS011;62122;41.112;16.694;2022-08-11T01:47:51;7.78;;;4.75;;
73791;SDS011;62122;41.112;16.694;2022-08-11T01:56:14;8.48;;;4.93;;
73791;SDS011;62122;41.112;16.694;2022-08-11T01:59:18;7.03;;;4.50;;
73791;SDS011;62122;41.112;16.694;2022-08-11T02:05:58;6.97;;;4.60;;
73791;SDS011;62122;41.112;16.694;2022-08-11T02:10:15;9.82;;;5.28;;
73791;SDS011;62122;41.112;16.694;2022-08-11T02:13:48;7.97;;;4.40;;
73791;SDS011;62122;41.112;16.694;2022-08-11T02:20:25;10.47;;;4.67;;
73791;SDS011;62122;41.112;16.694;2022-08-11T02:23:55;7.78;;;4.50;;
73791;SDS011;62122;41.112;16.694;2022-08-11T02:27:05;9.25;;;5.13;;
73791;SDS011;62122;41.112;16.694;2022-08-11T02:30:17;8.88;;;4.50;;
73791;SDS011;62122;41.112;16.694;2022-08-11T02:33:26;9.15;;;4.30;;
73791;SDS011;62122;41.112;16.694;2022-08-11T02:36:39;10.50;;;4.30;;
73791;SDS011;62122;41.112;16.694;2022-08-11T02:39:53;9.00;;;4.70;;
73791;SDS011;62122;41.112;16.694;2022-08-11T02:43:23;11.07;;;4.63;;
73791;SDS011;62122;41.112;16.694;2022-08-11T02:46:48;10.73;;;5.28;;
73791;SDS011;62122;41.112;16.694;2022-08-11T02:53:28;7.70;;;4.67;;
73791;SDS011;62122;41.112;16.694;2022-08-11T02:59:56;7.60;;;4.68;;
73791;SDS011;62122;41.112;16.694;2022-08-11T03:03:14;9.52;;;4.35;;
73791;SDS011;62122;41.112;16.694;2022-08-11T03:07:00;8.88;;;5.47;;
73791;SDS011;62122;41.112;16.694;2022-08-11T03:10:22;7.33;;;5.20;;
73791;SDS011;62122;41.112;16.694;2022-08-11T03:13:33;8.38;;;4.93;;
73791;SDS011;62122;41.112;16.694;2022-08-11T03:20:45;8.77;;;5.35;;
73791;SDS011;62122;41.112;16.694;2022-08-11T03:24:07;10.75;;;4.75;;
73791;SDS011;62122;41.112;16.694;2022-08-11T03:27:39;8.93;;;5.03;;
73791;SDS011;62122;41.112;16.694;2022-08-11T03:31:00;7.88;;;4.95;;
73791;SDS011;62122;41.112;16.694;2022-08-11T03:34:28;8.75;;;5.53;;
73791;SDS011;62122;41.112;16.694;2022-08-11T03:45:04;11.17;;;4.90;;
73791;SDS011;62122;41.112;16.694;2022-08-11T03:48:21;9.07;;;4.55;;
73791;SDS011;62122;41.112;16.694;2022-08-11T04:40:55;13.75;;;6.35;;
73791;SDS011;62122;41.112;16.694;2022-08-11T05:14:06;16.13;;;7.00;;
73791;SDS011;62122;41.112;16.694;2022-08-11T05:18:15;18.58;;;7.22;;
73791;SDS011;62122;41.112;16.694;2022-08-11T05:21:40;21.55;;;7.55;;
73791;SDS011;62122;41.112;16.694;2022-08-11T05:25:10;15.68;;;5.95;;
73791;SDS011;62122;41.112;16.694;2022-08-11T05:29:00;36.92;;;8.45;;
73791;SDS011;62122;41.112;16.694;2022-08-11T05:32:23;20.47;;;5.90;;
73791;SDS011;62122;41.112;16.694;2022-08-11T05:35:59;23.20;;;6.18;;
73791;SDS011;62122;41.112;16.694;2022-08-11T05:39:19;21.20;;;6.80;;
73791;SDS011;62122;41.112;16.694;2022-08-11T05:42:49;15.93;;;6.55;;
73791;SDS011;62122;41.112;16.694;2022-08-11T05:46:16;10.65;;;5.53;;
73791;SDS011;62122;41.112;16.694;2022-08-11T05:49:39;19.00;;;5.77;;
73791;SDS011;62122;41.112;16.694;2022-08-11T05:53:02;11.65;;;5.30;;
73791;SDS011;62122;41.112;16.694;2022-08-11T05:56:29;17.88;;;5.93;;
73791;SDS011;62122;41.112;16.694;2022-08-11T05:59:35;19.17;;;5.45;;
73791;SDS011;62122;41.112;16.694;2022-08-11T06:02:43;12.75;;;5.68;;
73791;SDS011;62122;41.112;16.694;2022-08-11T06:05:51;12.70;;;6.50;;
73791;SDS011;62122;41.112;16.694;2022-08-11T06:08:56;10.95;;;5.70;;
73791;SDS011;62122;41.112;16.694;2022-08-11T06:12:03;11.48;;;5.65;;
73791;SDS011;62122;41.112;16.694;2022-08-11T06:15:18;11.38;;;5.95;;
73791;SDS011;62122;41.112;16.694;2022-08-11T06:18:22;12.23;;;5.55;;
73791;SDS011;62122;41.112;16.694;2022-08-11T06:21:26;9.57;;;5.07;;
73791;SDS011;62122;41.112;16.694;2022-08-11T06:24:30;10.40;;;5.95;;
73791;SDS011;62122;41.112;16.694;2022-08-11T06:27:37;10.85;;;5.57;;
73791;SDS011;62122;41.112;16.694;2022-08-11T06:30:43;11.40;;;6.05;;
73791;SDS011;62122;41.112;16.694;2022-08-11T06:41:03;11.45;;;5.50;;
73791;SDS011;62122;41.112;16.694;2022-08-11T06:44:41;14.73;;;5.00;;
73791;SDS011;62122;41.112;16.694;2022-08-11T06:47:50;12.40;;;4.47;;
73791;SDS011;62122;41.112;16.694;2022-08-11T06:51:03;13.95;;;6.32;;
73791;SDS011;62122;41.112;16.694;2022-08-11T06:54:14;8.20;;;4.10;;
73791;SDS011;62122;41.112;16.694;2022-08-11T06:57:18;10.88;;;4.45;;
73791;SDS011;62122;41.112;16.694;2022-08-11T07:00:41;10.65;;;4.35;;
73791;SDS011;62122;41.112;16.694;2022-08-11T07:03:52;9.07;;;4.22;;
73791;SDS011;62122;41.112;16.694;2022-08-11T07:15:04;8.43;;;4.38;;
73791;SDS011;62122;41.112;16.694;2022-08-11T07:18:33;8.80;;;5.22;;
73791;SDS011;62122;41.112;16.694;2022-08-11T07:21:57;8.13;;;4.55;;
73791;SDS011;62122;41.112;16.694;2022-08-11T07:25:23;8.30;;;4.00;;
73791;SDS011;62122;41.112;16.694;2022-08-11T07:28:47;9.40;;;3.97;;
73791;SDS011;62122;41.112;16.694;2022-08-11T07:31:58;9.48;;;4.18;;
73791;SDS011;62122;41.112;16.694;2022-08-11T07:35:15;9.80;;;4.95;;
73791;SDS011;62122;41.112;16.694;2022-08-11T07:38:41;8.80;;;4.93;;
73791;SDS011;62122;41.112;16.694;2022-08-11T07:41:50;10.63;;;4.60;;
73791;SDS011;62122;41.112;16.694;2022-08-11T07:44:57;11.47;;;4.60;;
73791;SDS011;62122;41.112;16.694;2022-08-11T07:48:21;10.38;;;4.40;;
73791;SDS011;62122;41.112;16.694;2022-08-11T07:51:43;9.52;;;4.90;;
73791;SDS011;62122;41.112;16.694;2022-08-11T07:55:07;8.20;;;4.18;;
73791;SDS011;62122;41.112;16.694;2022-08-11T07:58:16;9.27;;;4.70;;
73791;SDS011;62122;41.112;16.694;2022-08-11T08:01:38;9.67;;;4.40;;
73791;SDS011;62122;41.112;16.694;2022-08-11T08:05:03;12.25;;;4.50;;
73791;SDS011;62122;41.112;16.694;2022-08-11T08:08:27;8.32;;;4.68;;
73791;SDS011;62122;41.112;16.694;2022-08-11T08:11:51;10.68;;;5.05;;
73791;SDS011;62122;41.112;16.694;2022-08-11T08:15:14;9.13;;;4.82;;
73791;SDS011;62122;41.112;16.694;2022-08-11T08:18:37;9.27;;;4.33;;
73791;SDS011;62122;41.112;16.694;2022-08-11T08:21:43;10.05;;;4.07;;
73791;SDS011;62122;41.112;16.694;2022-08-11T08:24:47;7.32;;;4.40;;
73791;SDS011;62122;41.112;16.694;2022-08-11T08:27:52;13.15;;;5.15;;
73791;SDS011;62122;41.112;16.694;2022-08-11T08:30:58;9.10;;;4.60;;
73791;SDS011;62122;41.112;16.694;2022-08-11T08:34:03;8.50;;;5.17;;
73791;SDS011;62122;41.112;16.694;2022-08-11T08:37:07;7.07;;;4.75;;
73791;SDS011;62122;41.112;16.694;2022-08-11T08:40:11;8.93;;;5.22;;
